Deo Volente — PHFJ — position and weather

sailwx.info

Track history (hours):
 
Tides and Currents Weather Stations Pressure Air Temp Water Temp Dewpoint Dewpoint Depression Visibility Wind Speed Wind Dir Waves Ship Positions

Deo Volente

Last reported at 2014-Nov-25 19:24 UTC. Time now 2014-Nov-26 16:16 UTC.
Position N 57°08' W 001°37'.

Length 105 m; draft 4.9 m.

Type: Cargo ship. MMSI: 246518000.

Date/timePositionNaut miles runAvg speedWind from/ knotsBaromVisibWave heightAir tempDewpointWater temp
2014-Nov-25 19:24N 57°08' W 001°37'1113.3
2014-Nov-25 18:33N 57°20' W 001°38'1211.7
2014-Nov-25 17:33N 57°31' W 001°37'1212.1
2014-Nov-25 16:33N 57°43' W 001°45'7114.2
2014-Nov-25 11:33N 58°41' W 003°02'1716.3
2014-Nov-25 10:33N 58°42' W 003°34'1515.1
2014-Nov-25 09:33N 58°42' W 004°03'4813.7
2014-Nov-25 06:03N 58°24' W 005°28'814.9
2014-Nov-25 05:32N 58°17' W 005°35'1514.9
2014-Nov-25 04:33N 58°05' W 005°50'11511.1
2014-Nov-24 18:16N 56°10' W 005°54'2614.0
2014-Nov-24 16:26N 55°45' W 006°00'1415.6
2014-Nov-24 15:33N 55°31' W 005°56'1716.6
2014-Nov-24 14:31N 55°16' W 005°45'11 8.2
2014-Nov-24 13:08N 55°25' W 005°35'0 0.0
2014-Nov-23 12:34N 55°25' W 005°36'1613.1
2014-Nov-23 11:19N 55°11' W 005°23'1316.4
2014-Nov-23 10:33N 54°59' W 005°20'1515.4
2014-Nov-23 09:34N 54°43' W 005°16'1514.8
2014-Nov-23 08:34N 54°29' W 005°13'1615.8
2014-Nov-23 07:31N 54°12' W 005°13'25212.0
2014-Nov-22 10:25N 50°06' W 003°40'1517.0
2014-Nov-22 09:33N 50°09' W 003°18'1615.8
2014-Nov-22 08:33N 50°13' W 002°54'5914.4
2014-Nov-22 04:26N 50°24' W 001°23'5117.8
2014-Nov-22 01:33N 50°33' W 000°03'1817.7
2014-Nov-22 00:34N 50°37' E 000°23'1616.4
2014-Nov-21 23:34N 50°45' E 000°47'1515.2
2014-Nov-21 22:33N 50°53' E 001°06'1514.7
2014-Nov-21 21:34N 51°02' E 001°25'1716.7
2014-Nov-21 20:34N 51°13' E 001°45'1817.9
2014-Nov-21 19:33N 51°28' E 001°60'5817.2
2014-Nov-21 16:10N 52°03' E 003°16'1216.9
2014-Nov-21 15:29N 52°04' E 003°35'1414.8
2014-Nov-21 14:33N 52°02' E 003°57'1414.1
2014-Nov-21 13:33N 51°54' E 004°16'4 3.8
2014-Nov-21 12:33N 51°54' E 004°22'0 0.0
2014-Nov-21 11:33N 51°54' E 004°22'0 0.0
2014-Nov-21 10:33N 51°54' E 004°22'0 0.0
2014-Nov-21 09:33N 51°54' E 004°22'0 0.0
2014-Nov-21 08:33N 51°54' E 004°22'0 0.0
2014-Nov-21 07:34N 51°54' E 004°22'0 0.0
2014-Nov-21 06:33N 51°54' E 004°22'0 0.0
2014-Nov-21 05:33N 51°54' E 004°22'0 0.0
2014-Nov-21 04:33N 51°54' E 004°22'0 0.0
2014-Nov-21 03:33N 51°54' E 004°22'0 0.0
2014-Nov-21 02:33N 51°54' E 004°22'0 0.0
2014-Nov-21 01:33N 51°54' E 004°22'0 0.0
2014-Nov-21 00:33N 51°54' E 004°22'0 0.0
2014-Nov-20 23:33N 51°54' E 004°22'0 0.0
2014-Nov-20 22:33N 51°54' E 004°22'0 0.0
2014-Nov-20 21:33N 51°54' E 004°22'0 0.0
2014-Nov-20 20:33N 51°54' E 004°22'0 0.0
2014-Nov-20 19:33N 51°54' E 004°22'0 0.0
2014-Nov-20 18:33N 51°54' E 004°22'0 0.0
2014-Nov-20 17:33N 51°54' E 004°22'0 0.0
2014-Nov-20 16:33N 51°54' E 004°22'0 0.0
2014-Nov-20 15:33N 51°54' E 004°22'0 0.0
2014-Nov-20 14:33N 51°54' E 004°22'0 0.0
2014-Nov-20 13:33N 51°54' E 004°22'0 0.0
2014-Nov-20 12:33N 51°54' E 004°22'0 0.0
2014-Nov-20 11:33N 51°54' E 004°22'0 0.0
2014-Nov-20 10:33N 51°54' E 004°22'0 0.0
2014-Nov-20 09:33N 51°54' E 004°22'0 0.0
2014-Nov-20 08:33N 51°54' E 004°22'0 0.0
2014-Nov-20 07:34N 51°54' E 004°22'0 0.0
2014-Nov-20 06:33N 51°54' E 004°22'0 0.0
2014-Nov-20 05:33N 51°54' E 004°22'3 3.3
2014-Nov-20 04:33N 51°54' E 004°17'1313.1
2014-Nov-20 03:33N 51°60' E 003°58'1513.0
2014-Nov-20 02:26N 51°57' E 003°35'1616.7
2014-Nov-20 01:28N 51°52' E 003°10'3216.9
2014-Nov-19 23:34N 51°36' E 002°25'1917.9
2014-Nov-19 22:31N 51°20' E 002°09'1817.9
2014-Nov-19 21:31N 51°07' E 001°49'1918.4
2014-Nov-19 20:30N 50°54' E 001°28'  
Track history (hours):
 
Tides and Currents Weather Stations Pressure Air Temp Water Temp Dewpoint Dewpoint Depression Visibility Wind Speed Wind Dir Waves Ship Positions

Deo Volente

Last reported at 2014-Nov-25 19:24 UTC. Time now 2014-Nov-26 16:16 UTC.
Position N 57°08' W 001°37'.

Length 105 m; draft 4.9 m.

Type: Cargo ship. MMSI: 246518000.

Date/timePositionNaut miles runAvg speedWind from/ knotsBaromVisibWave heightAir tempDewpointWater temp
2014-Nov-25 19:24N 57°08' W 001°37'1113.3
2014-Nov-25 18:33N 57°20' W 001°38'1211.7
2014-Nov-25 17:33N 57°31' W 001°37'1212.1
2014-Nov-25 16:33N 57°43' W 001°45'7114.2
2014-Nov-25 11:33N 58°41' W 003°02'1716.3
2014-Nov-25 10:33N 58°42' W 003°34'1515.1
2014-Nov-25 09:33N 58°42' W 004°03'4813.7
2014-Nov-25 06:03N 58°24' W 005°28'814.9
2014-Nov-25 05:32N 58°17' W 005°35'1514.9
2014-Nov-25 04:33N 58°05' W 005°50'11511.1
2014-Nov-24 18:16N 56°10' W 005°54'2614.0
2014-Nov-24 16:26N 55°45' W 006°00'1415.6
2014-Nov-24 15:33N 55°31' W 005°56'1716.6
2014-Nov-24 14:31N 55°16' W 005°45'11 8.2
2014-Nov-24 13:08N 55°25' W 005°35'0 0.0
2014-Nov-23 12:34N 55°25' W 005°36'1613.1
2014-Nov-23 11:19N 55°11' W 005°23'1316.4
2014-Nov-23 10:33N 54°59' W 005°20'1515.4
2014-Nov-23 09:34N 54°43' W 005°16'1514.8
2014-Nov-23 08:34N 54°29' W 005°13'1615.8
2014-Nov-23 07:31N 54°12' W 005°13'25212.0
2014-Nov-22 10:25N 50°06' W 003°40'1517.0
2014-Nov-22 09:33N 50°09' W 003°18'1615.8
2014-Nov-22 08:33N 50°13' W 002°54'5914.4
2014-Nov-22 04:26N 50°24' W 001°23'5117.8
2014-Nov-22 01:33N 50°33' W 000°03'1817.7
2014-Nov-22 00:34N 50°37' E 000°23'1616.4
2014-Nov-21 23:34N 50°45' E 000°47'1515.2
2014-Nov-21 22:33N 50°53' E 001°06'1514.7
2014-Nov-21 21:34N 51°02' E 001°25'1716.7
2014-Nov-21 20:34N 51°13' E 001°45'1817.9
2014-Nov-21 19:33N 51°28' E 001°60'5817.2
2014-Nov-21 16:10N 52°03' E 003°16'1216.9
2014-Nov-21 15:29N 52°04' E 003°35'1414.8
2014-Nov-21 14:33N 52°02' E 003°57'1414.1
2014-Nov-21 13:33N 51°54' E 004°16'4 3.8
2014-Nov-21 12:33N 51°54' E 004°22'0 0.0
2014-Nov-21 11:33N 51°54' E 004°22'0 0.0
2014-Nov-21 10:33N 51°54' E 004°22'0 0.0
2014-Nov-21 09:33N 51°54' E 004°22'0 0.0
2014-Nov-21 08:33N 51°54' E 004°22'0 0.0
2014-Nov-21 07:34N 51°54' E 004°22'0 0.0
2014-Nov-21 06:33N 51°54' E 004°22'0 0.0
2014-Nov-21 05:33N 51°54' E 004°22'0 0.0
2014-Nov-21 04:33N 51°54' E 004°22'0 0.0
2014-Nov-21 03:33N 51°54' E 004°22'0 0.0
2014-Nov-21 02:33N 51°54' E 004°22'0 0.0
2014-Nov-21 01:33N 51°54' E 004°22'0 0.0
2014-Nov-21 00:33N 51°54' E 004°22'0 0.0
2014-Nov-20 23:33N 51°54' E 004°22'0 0.0
2014-Nov-20 22:33N 51°54' E 004°22'0 0.0
2014-Nov-20 21:33N 51°54' E 004°22'0 0.0
2014-Nov-20 20:33N 51°54' E 004°22'0 0.0
2014-Nov-20 19:33N 51°54' E 004°22'0 0.0
2014-Nov-20 18:33N 51°54' E 004°22'0 0.0
2014-Nov-20 17:33N 51°54' E 004°22'0 0.0
2014-Nov-20 16:33N 51°54' E 004°22'0 0.0
2014-Nov-20 15:33N 51°54' E 004°22'0 0.0
2014-Nov-20 14:33N 51°54' E 004°22'0 0.0
2014-Nov-20 13:33N 51°54' E 004°22'0 0.0
2014-Nov-20 12:33N 51°54' E 004°22'0 0.0
2014-Nov-20 11:33N 51°54' E 004°22'0 0.0
2014-Nov-20 10:33N 51°54' E 004°22'0 0.0
2014-Nov-20 09:33N 51°54' E 004°22'0 0.0
2014-Nov-20 08:33N 51°54' E 004°22'0 0.0
2014-Nov-20 07:34N 51°54' E 004°22'0 0.0
2014-Nov-20 06:33N 51°54' E 004°22'0 0.0
2014-Nov-20 05:33N 51°54' E 004°22'3 3.3
2014-Nov-20 04:33N 51°54' E 004°17'1313.1
2014-Nov-20 03:33N 51°60' E 003°58'1513.0
2014-Nov-20 02:26N 51°57' E 003°35'1616.7
2014-Nov-20 01:28N 51°52' E 003°10'3216.9
2014-Nov-19 23:34N 51°36' E 002°25'1917.9
2014-Nov-19 22:31N 51°20' E 002°09'1817.9
2014-Nov-19 21:31N 51°07' E 001°49'1918.4
2014-Nov-19 20:30N 50°54' E 001°28'  

Dump ship's entire track history